Standard, Illinois
Current Conditions -  °F | °C
As of 10:55 PM on Friday 19 Dec 2014 (Local Time) from KVYS Reporting Station
Overcast Overcast  
Wind Chill: 30°   Ceiling: 3300
Heat Index: 30°   Visibility: 10mi
Dew Point: 26°   Wind: 3mph
Humidity: 85%   Direction: 80°E
Pressure: 30.27"   Gusts: NA
Location:  41.26°N, 89.18°W
Report Text: KVYS 200455Z AUTO 08003KT 10SM OVC033 M01/M03 A3027 RMK AO2 T10131035
Loading
Personal Weather Stations






























Interactive Weather Map New forecast layout! Learn more

10-Day Weather Forecast

Advertisements
Track Severe Weather on mobile